sensor_id;sensor_type;location;lat;lon;timestamp;temperature;humidity
19972;DHT22;10147;16.402;102.848;2023-07-22T00:00:22;25.70;99.90
19972;DHT22;10147;16.402;102.848;2023-07-22T00:02:52;25.80;99.90
19972;DHT22;10147;16.402;102.848;2023-07-22T00:05:22;25.90;99.90
19972;DHT22;10147;16.402;102.848;2023-07-22T00:07:53;25.90;99.90
19972;DHT22;10147;16.402;102.848;2023-07-22T00:10:23;26.00;99.90
19972;DHT22;10147;16.402;102.848;2023-07-22T00:12:53;26.00;99.90
19972;DHT22;10147;16.402;102.848;2023-07-22T00:15:22;26.00;99.90
19972;DHT22;10147;16.402;102.848;2023-07-22T00:17:54;26.10;99.90
19972;DHT22;10147;16.402;102.848;2023-07-22T00:20:25;26.00;99.90
19972;DHT22;10147;16.402;102.848;2023-07-22T00:22:55;26.10;99.90
19972;DHT22;10147;16.402;102.848;2023-07-22T00:25:25;26.20;99.90
19972;DHT22;10147;16.402;102.848;2023-07-22T00:27:55;26.20;99.90
19972;DHT22;10147;16.402;102.848;2023-07-22T00:30:26;26.20;99.90
19972;DHT22;10147;16.402;102.848;2023-07-22T00:32:58;26.30;99.90
19972;DHT22;10147;16.402;102.848;2023-07-22T00:35:27;26.40;99.90
19972;DHT22;10147;16.402;102.848;2023-07-22T00:37:58;26.40;99.90
19972;DHT22;10147;16.402;102.848;2023-07-22T00:40:29;26.40;99.90
19972;DHT22;10147;16.402;102.848;2023-07-22T00:43:02;26.60;99.90
19972;DHT22;10147;16.402;102.848;2023-07-22T00:45:34;26.60;99.90
19972;DHT22;10147;16.402;102.848;2023-07-22T00:48:05;26.70;99.90
19972;DHT22;10147;16.402;102.848;2023-07-22T00:50:37;26.70;99.90
19972;DHT22;10147;16.402;102.848;2023-07-22T00:53:08;26.60;99.90
19972;DHT22;10147;16.402;102.848;2023-07-22T00:55:39;26.70;99.90
19972;DHT22;10147;16.402;102.848;2023-07-22T00:58:13;26.80;99.90
19972;DHT22;10147;16.402;102.848;2023-07-22T01:00:43;26.90;99.90
19972;DHT22;10147;16.402;102.848;2023-07-22T01:03:13;26.90;99.90
19972;DHT22;10147;16.402;102.848;2023-07-22T01:05:43;27.00;99.90
19972;DHT22;10147;16.402;102.848;2023-07-22T01:08:14;27.10;99.90
19972;DHT22;10147;16.402;102.848;2023-07-22T01:10:43;27.10;99.90
19972;DHT22;10147;16.402;102.848;2023-07-22T01:13:13;27.20;99.90
19972;DHT22;10147;16.402;102.848;2023-07-22T01:15:43;27.20;99.90
19972;DHT22;10147;16.402;102.848;2023-07-22T01:18:14;27.40;99.90
19972;DHT22;10147;16.402;102.848;2023-07-22T01:20:45;27.60;99.90
19972;DHT22;10147;16.402;102.848;2023-07-22T01:23:15;27.60;99.90
19972;DHT22;10147;16.402;102.848;2023-07-22T01:25:45;27.50;99.90
19972;DHT22;10147;16.402;102.848;2023-07-22T01:28:16;27.60;99.90
19972;DHT22;10147;16.402;102.848;2023-07-22T01:30:46;27.60;99.90
19972;DHT22;10147;16.402;102.848;2023-07-22T01:33:17;27.70;99.90
19972;DHT22;10147;16.402;102.848;2023-07-22T01:35:47;27.70;99.90
19972;DHT22;10147;16.402;102.848;2023-07-22T01:38:17;27.90;99.90
19972;DHT22;10147;16.402;102.848;2023-07-22T01:40:47;27.90;99.90
19972;DHT22;10147;16.402;102.848;2023-07-22T01:43:17;28.00;99.90
19972;DHT22;10147;16.402;102.848;2023-07-22T01:45:47;28.00;99.90
19972;DHT22;10147;16.402;102.848;2023-07-22T01:48:17;28.00;99.90
19972;DHT22;10147;16.402;102.848;2023-07-22T01:50:47;28.00;99.90
19972;DHT22;10147;16.402;102.848;2023-07-22T01:53:17;28.00;99.90
19972;DHT22;10147;16.402;102.848;2023-07-22T01:55:47;28.10;99.90
19972;DHT22;10147;16.402;102.848;2023-07-22T01:58:17;28.10;99.90
19972;DHT22;10147;16.402;102.848;2023-07-22T02:00:50;28.10;99.90
19972;DHT22;10147;16.402;102.848;2023-07-22T02:03:20;28.20;99.90
19972;DHT22;10147;16.402;102.848;2023-07-22T02:05:50;28.20;99.90
19972;DHT22;10147;16.402;102.848;2023-07-22T02:08:20;28.50;99.90
19972;DHT22;10147;16.402;102.848;2023-07-22T02:10:50;28.70;99.90
19972;DHT22;10147;16.402;102.848;2023-07-22T02:13:20;28.80;99.90
19972;DHT22;10147;16.402;102.848;2023-07-22T02:15:50;28.80;99.90
19972;DHT22;10147;16.402;102.848;2023-07-22T02:18:21;28.90;99.90
19972;DHT22;10147;16.402;102.848;2023-07-22T02:20:51;28.90;99.90
19972;DHT22;10147;16.402;102.848;2023-07-22T02:23:22;29.00;99.90
19972;DHT22;10147;16.402;102.848;2023-07-22T02:25:53;29.10;99.90
19972;DHT22;10147;16.402;102.848;2023-07-22T02:28:24;29.30;99.90
19972;DHT22;10147;16.402;102.848;2023-07-22T02:30:55;29.30;99.90
19972;DHT22;10147;16.402;102.848;2023-07-22T02:33:26;29.40;99.90
19972;DHT22;10147;16.402;102.848;2023-07-22T02:35:57;29.40;99.90
19972;DHT22;10147;16.402;102.848;2023-07-22T02:38:26;29.70;99.90
19972;DHT22;10147;16.402;102.848;2023-07-22T02:41:04;29.60;99.90
19972;DHT22;10147;16.402;102.848;2023-07-22T02:43:36;29.40;99.90
19972;DHT22;10147;16.402;102.848;2023-07-22T02:46:07;29.30;99.90
19972;DHT22;10147;16.402;102.848;2023-07-22T02:48:40;29.40;99.90
19972;DHT22;10147;16.402;102.848;2023-07-22T02:51:10;29.40;99.90
19972;DHT22;10147;16.402;102.848;2023-07-22T02:53:41;29.30;99.90
19972;DHT22;10147;16.402;102.848;2023-07-22T02:56:11;29.40;99.90
19972;DHT22;10147;16.402;102.848;2023-07-22T02:58:41;29.20;99.90
19972;DHT22;10147;16.402;102.848;2023-07-22T03:01:11;29.20;99.90
19972;DHT22;10147;16.402;102.848;2023-07-22T03:03:42;29.20;99.90
19972;DHT22;10147;16.402;102.848;2023-07-22T03:06:12;29.20;99.90
19972;DHT22;10147;16.402;102.848;2023-07-22T03:08:43;29.30;99.90
19972;DHT22;10147;16.402;102.848;2023-07-22T03:11:14;29.30;99.90
19972;DHT22;10147;16.402;102.848;2023-07-22T03:13:44;29.40;99.90
19972;DHT22;10147;16.402;102.848;2023-07-22T03:16:15;29.40;99.90
19972;DHT22;10147;16.402;102.848;2023-07-22T03:18:45;29.50;99.90
19972;DHT22;10147;16.402;102.848;2023-07-22T03:21:15;29.50;99.90
19972;DHT22;10147;16.402;102.848;2023-07-22T03:23:45;29.60;99.90
19972;DHT22;10147;16.402;102.848;2023-07-22T03:26:15;29.70;99.90
19972;DHT22;10147;16.402;102.848;2023-07-22T03:28:46;30.00;99.90
19972;DHT22;10147;16.402;102.848;2023-07-22T03:31:16;30.30;99.90
19972;DHT22;10147;16.402;102.848;2023-07-22T03:33:48;30.40;99.90
19972;DHT22;10147;16.402;102.848;2023-07-22T03:36:19;30.40;99.90
19972;DHT22;10147;16.402;102.848;2023-07-22T03:38:50;30.40;99.90
19972;DHT22;10147;16.402;102.848;2023-07-22T03:41:20;30.10;99.90
19972;DHT22;10147;16.402;102.848;2023-07-22T03:43:50;30.40;99.90
19972;DHT22;10147;16.402;102.848;2023-07-22T03:46:21;30.60;99.90
19972;DHT22;10147;16.402;102.848;2023-07-22T03:48:51;30.80;99.90
19972;DHT22;10147;16.402;102.848;2023-07-22T03:51:21;30.80;99.90
19972;DHT22;10147;16.402;102.848;2023-07-22T03:53:52;31.00;99.90
19972;DHT22;10147;16.402;102.848;2023-07-22T03:56:22;31.00;99.90
19972;DHT22;10147;16.402;102.848;2023-07-22T03:58:54;30.90;99.90
19972;DHT22;10147;16.402;102.848;2023-07-22T04:01:24;31.10;99.90
19972;DHT22;10147;16.402;102.848;2023-07-22T04:03:55;31.30;99.90
19972;DHT22;10147;16.402;102.848;2023-07-22T04:06:25;31.30;99.90
19972;DHT22;10147;16.402;102.848;2023-07-22T04:08:56;31.40;99.90
19972;DHT22;10147;16.402;102.848;2023-07-22T04:11:27;31.50;99.90
19972;DHT22;10147;16.402;102.848;2023-07-22T04:13:57;31.50;99.90
19972;DHT22;10147;16.402;102.848;2023-07-22T04:16:27;31.40;99.90
19972;DHT22;10147;16.402;102.848;2023-07-22T04:18:58;31.50;99.90
19972;DHT22;10147;16.402;102.848;2023-07-22T04:21:30;31.70;99.90
19972;DHT22;10147;16.402;102.848;2023-07-22T04:24:00;31.80;99.90
19972;DHT22;10147;16.402;102.848;2023-07-22T04:26:31;31.80;99.90
19972;DHT22;10147;16.402;102.848;2023-07-22T04:29:01;32.00;99.90
19972;DHT22;10147;16.402;102.848;2023-07-22T04:31:33;32.00;99.90
19972;DHT22;10147;16.402;102.848;2023-07-22T04:34:05;31.80;99.90
19972;DHT22;10147;16.402;102.848;2023-07-22T04:36:36;31.90;99.90
19972;DHT22;10147;16.402;102.848;2023-07-22T04:39:06;32.20;99.90
19972;DHT22;10147;16.402;102.848;2023-07-22T04:41:37;32.40;99.90
19972;DHT22;10147;16.402;102.848;2023-07-22T04:44:07;32.50;99.90
19972;DHT22;10147;16.402;102.848;2023-07-22T04:46:38;32.10;99.90
19972;DHT22;10147;16.402;102.848;2023-07-22T04:49:08;32.20;99.90
19972;DHT22;10147;16.402;102.848;2023-07-22T04:51:39;32.50;99.90
19972;DHT22;10147;16.402;102.848;2023-07-22T04:54:09;32.60;99.90
19972;DHT22;10147;16.402;102.848;2023-07-22T04:56:40;32.80;99.90
19972;DHT22;10147;16.402;102.848;2023-07-22T04:59:11;32.30;99.90
19972;DHT22;10147;16.402;102.848;2023-07-22T05:01:43;31.80;99.90
19972;DHT22;10147;16.402;102.848;2023-07-22T05:04:13;31.50;99.90
19972;DHT22;10147;16.402;102.848;2023-07-22T05:06:43;31.80;99.90
19972;DHT22;10147;16.402;102.848;2023-07-22T05:09:14;32.30;99.90
19972;DHT22;10147;16.402;102.848;2023-07-22T05:11:44;32.60;99.90
19972;DHT22;10147;16.402;102.848;2023-07-22T05:14:14;33.00;99.90
19972;DHT22;10147;16.402;102.848;2023-07-22T05:16:44;33.30;99.90
19972;DHT22;10147;16.402;102.848;2023-07-22T05:19:16;33.30;99.90
19972;DHT22;10147;16.402;102.848;2023-07-22T05:21:46;33.30;99.90
19972;DHT22;10147;16.402;102.848;2023-07-22T05:24:17;33.40;99.90
19972;DHT22;10147;16.402;102.848;2023-07-22T05:26:47;33.00;99.90
19972;DHT22;10147;16.402;102.848;2023-07-22T05:29:35;32.80;99.90
19972;DHT22;10147;16.402;102.848;2023-07-22T05:32:06;32.60;99.90
19972;DHT22;10147;16.402;102.848;2023-07-22T05:34:55;32.50;99.90
19972;DHT22;10147;16.402;102.848;2023-07-22T05:37:26;32.50;99.90
19972;DHT22;10147;16.402;102.848;2023-07-22T05:39:56;32.90;99.90
19972;DHT22;10147;16.402;102.848;2023-07-22T05:42:26;32.70;99.90
19972;DHT22;10147;16.402;102.848;2023-07-22T05:44:58;33.10;99.90
19972;DHT22;10147;16.402;102.848;2023-07-22T05:47:28;33.00;99.90
19972;DHT22;10147;16.402;102.848;2023-07-22T05:49:59;33.20;99.90
19972;DHT22;10147;16.402;102.848;2023-07-22T05:52:29;33.50;99.90
19972;DHT22;10147;16.402;102.848;2023-07-22T05:55:00;33.70;99.90
19972;DHT22;10147;16.402;102.848;2023-07-22T05:57:31;33.60;99.90
19972;DHT22;10147;16.402;102.848;2023-07-22T06:00:02;33.50;99.90
19972;DHT22;10147;16.402;102.848;2023-07-22T06:02:39;33.20;99.90
19972;DHT22;10147;16.402;102.848;2023-07-22T06:05:09;33.00;99.90
19972;DHT22;10147;16.402;102.848;2023-07-22T06:07:40;33.10;99.90
19972;DHT22;10147;16.402;102.848;2023-07-22T06:10:12;33.20;99.90
19972;DHT22;10147;16.402;102.848;2023-07-22T06:12:42;33.20;99.90
19972;DHT22;10147;16.402;102.848;2023-07-22T06:15:12;33.50;99.90
19972;DHT22;10147;16.402;102.848;2023-07-22T06:17:43;33.70;99.90
19972;DHT22;10147;16.402;102.848;2023-07-22T06:20:13;33.90;99.90
19972;DHT22;10147;16.402;102.848;2023-07-22T06:22:44;34.00;99.90
19972;DHT22;10147;16.402;102.848;2023-07-22T06:25:14;34.00;99.90
19972;DHT22;10147;16.402;102.848;2023-07-22T06:27:46;34.00;99.90
19972;DHT22;10147;16.402;102.848;2023-07-22T06:30:16;33.60;99.90
19972;DHT22;10147;16.402;102.848;2023-07-22T06:32:47;33.30;99.90
19972;DHT22;10147;16.402;102.848;2023-07-22T06:35:20;33.40;99.90
19972;DHT22;10147;16.402;102.848;2023-07-22T06:37:51;33.70;99.90
19972;DHT22;10147;16.402;102.848;2023-07-22T06:40:21;33.80;99.90
19972;DHT22;10147;16.402;102.848;2023-07-22T06:42:51;33.90;99.90
19972;DHT22;10147;16.402;102.848;2023-07-22T06:45:22;33.70;99.90
19972;DHT22;10147;16.402;102.848;2023-07-22T06:47:52;34.00;99.90
19972;DHT22;10147;16.402;102.848;2023-07-22T06:50:23;34.00;99.90
19972;DHT22;10147;16.402;102.848;2023-07-22T06:52:53;34.10;99.90
19972;DHT22;10147;16.402;102.848;2023-07-22T06:55:25;34.40;99.90
19972;DHT22;10147;16.402;102.848;2023-07-22T06:57:58;34.00;99.90
19972;DHT22;10147;16.402;102.848;2023-07-22T07:00:30;33.90;99.90
19972;DHT22;10147;16.402;102.848;2023-07-22T07:02:59;34.20;99.90
19972;DHT22;10147;16.402;102.848;2023-07-22T07:05:29;34.20;99.90
19972;DHT22;10147;16.402;102.848;2023-07-22T07:07:59;34.40;99.90
19972;DHT22;10147;16.402;102.848;2023-07-22T07:10:29;34.70;99.90
19972;DHT22;10147;16.402;102.848;2023-07-22T07:12:59;34.90;99.90
19972;DHT22;10147;16.402;102.848;2023-07-22T07:15:30;34.90;99.90
19972;DHT22;10147;16.402;102.848;2023-07-22T07:18:00;34.90;99.90
19972;DHT22;10147;16.402;102.848;2023-07-22T07:20:31;34.90;99.90
19972;DHT22;10147;16.402;102.848;2023-07-22T07:23:00;34.70;99.90
19972;DHT22;10147;16.402;102.848;2023-07-22T07:25:30;34.70;99.90
19972;DHT22;10147;16.402;102.848;2023-07-22T07:28:00;34.50;99.90
19972;DHT22;10147;16.402;102.848;2023-07-22T07:30:31;34.40;99.90
19972;DHT22;10147;16.402;102.848;2023-07-22T07:33:03;34.40;99.90
19972;DHT22;10147;16.402;102.848;2023-07-22T07:35:34;34.30;99.90
19972;DHT22;10147;16.402;102.848;2023-07-22T07:38:03;34.10;99.90
19972;DHT22;10147;16.402;102.848;2023-07-22T07:40:33;34.20;99.90
19972;DHT22;10147;16.402;102.848;2023-07-22T07:43:03;34.70;99.90
19972;DHT22;10147;16.402;102.848;2023-07-22T07:45:39;34.80;99.90
19972;DHT22;10147;16.402;102.848;2023-07-22T07:48:09;34.70;99.90
19972;DHT22;10147;16.402;102.848;2023-07-22T07:50:39;34.40;99.90
19972;DHT22;10147;16.402;102.848;2023-07-22T07:53:09;34.20;99.90
19972;DHT22;10147;16.402;102.848;2023-07-22T07:55:39;34.00;99.90
19972;DHT22;10147;16.402;102.848;2023-07-22T07:58:09;34.40;99.90
19972;DHT22;10147;16.402;102.848;2023-07-22T08:00:41;34.80;99.90
19972;DHT22;10147;16.402;102.848;2023-07-22T08:03:11;35.20;99.90
19972;DHT22;10147;16.402;102.848;2023-07-22T08:05:41;35.00;99.90
19972;DHT22;10147;16.402;102.848;2023-07-22T08:08:11;35.10;99.90
19972;DHT22;10147;16.402;102.848;2023-07-22T08:10:41;35.10;99.90
19972;DHT22;10147;16.402;102.848;2023-07-22T08:13:13;35.10;99.90
19972;DHT22;10147;16.402;102.848;2023-07-22T08:15:43;34.90;99.90
19972;DHT22;10147;16.402;102.848;2023-07-22T08:18:13;35.00;99.90
19972;DHT22;10147;16.402;102.848;2023-07-22T08:20:43;35.00;99.90
19972;DHT22;10147;16.402;102.848;2023-07-22T08:23:13;34.90;99.90
19972;DHT22;10147;16.402;102.848;2023-07-22T08:25:44;34.80;99.90
19972;DHT22;10147;16.402;102.848;2023-07-22T08:28:14;35.00;99.90
19972;DHT22;10147;16.402;102.848;2023-07-22T08:30:44;34.80;99.90
19972;DHT22;10147;16.402;102.848;2023-07-22T08:33:15;34.90;99.90
19972;DHT22;10147;16.402;102.848;2023-07-22T08:36:06;35.00;99.90
19972;DHT22;10147;16.402;102.848;2023-07-22T08:38:37;34.80;99.90
19972;DHT22;10147;16.402;102.848;2023-07-22T08:41:07;34.90;99.90
19972;DHT22;10147;16.402;102.848;2023-07-22T08:43:39;35.10;99.90
19972;DHT22;10147;16.402;102.848;2023-07-22T08:46:12;35.20;99.90
19972;DHT22;10147;16.402;102.848;2023-07-22T08:48:46;35.10;99.90
19972;DHT22;10147;16.402;102.848;2023-07-22T08:51:18;35.00;99.90
19972;DHT22;10147;16.402;102.848;2023-07-22T08:53:49;35.10;99.90
19972;DHT22;10147;16.402;102.848;2023-07-22T08:56:36;35.10;99.90
19972;DHT22;10147;16.402;102.848;2023-07-22T08:59:07;34.90;99.90
19972;DHT22;10147;16.402;102.848;2023-07-22T09:01:37;34.70;99.90
19972;DHT22;10147;16.402;102.848;2023-07-22T09:04:09;34.40;99.90
19972;DHT22;10147;16.402;102.848;2023-07-22T09:06:40;34.40;99.90
19972;DHT22;10147;16.402;102.848;2023-07-22T09:09:12;34.20;99.90
19972;DHT22;10147;16.402;102.848;2023-07-22T09:11:44;34.30;99.90
19972;DHT22;10147;16.402;102.848;2023-07-22T09:14:16;34.10;99.90
19972;DHT22;10147;16.402;102.848;2023-07-22T09:17:04;34.00;99.90
19972;DHT22;10147;16.402;102.848;2023-07-22T09:19:35;33.90;99.90
19972;DHT22;10147;16.402;102.848;2023-07-22T09:22:05;33.80;99.90
19972;DHT22;10147;16.402;102.848;2023-07-22T09:24:35;33.80;99.90
19972;DHT22;10147;16.402;102.848;2023-07-22T09:27:05;34.00;99.90
19972;DHT22;10147;16.402;102.848;2023-07-22T09:29:37;34.20;99.90
19972;DHT22;10147;16.402;102.848;2023-07-22T09:32:08;34.30;99.90
19972;DHT22;10147;16.402;102.848;2023-07-22T09:34:41;34.40;99.90
19972;DHT22;10147;16.402;102.848;2023-07-22T09:37:35;34.40;99.90
19972;DHT22;10147;16.402;102.848;2023-07-22T09:42:55;34.50;99.90
19972;DHT22;10147;16.402;102.848;2023-07-22T09:45:27;34.60;99.90
19972;DHT22;10147;16.402;102.848;2023-07-22T09:47:59;34.60;99.90
19972;DHT22;10147;16.402;102.848;2023-07-22T09:50:29;34.40;99.90
19972;DHT22;10147;16.402;102.848;2023-07-22T09:52:59;34.40;99.90
19972;DHT22;10147;16.402;102.848;2023-07-22T09:55:32;34.50;99.90
19972;DHT22;10147;16.402;102.848;2023-07-22T09:58:04;34.50;99.90
19972;DHT22;10147;16.402;102.848;2023-07-22T10:00:36;34.50;99.90
19972;DHT22;10147;16.402;102.848;2023-07-22T10:03:10;34.50;99.90
19972;DHT22;10147;16.402;102.848;2023-07-22T10:05:46;34.50;99.90
19972;DHT22;10147;16.402;102.848;2023-07-22T10:08:19;34.40;99.90
19972;DHT22;10147;16.402;102.848;2023-07-22T10:10:53;34.30;99.90
19972;DHT22;10147;16.402;102.848;2023-07-22T10:13:25;34.40;99.90
19972;DHT22;10147;16.402;102.848;2023-07-22T10:15:55;34.40;99.90
19972;DHT22;10147;16.402;102.848;2023-07-22T10:18:26;34.40;99.90
19972;DHT22;10147;16.402;102.848;2023-07-22T10:20:57;34.30;99.90
19972;DHT22;10147;16.402;102.848;2023-07-22T10:23:30;34.30;99.90
19972;DHT22;10147;16.402;102.848;2023-07-22T10:26:00;34.20;99.90
19972;DHT22;10147;16.402;102.848;2023-07-22T10:28:33;34.10;99.90
19972;DHT22;10147;16.402;102.848;2023-07-22T10:31:03;34.00;99.90
19972;DHT22;10147;16.402;102.848;2023-07-22T10:33:34;33.90;99.90
19972;DHT22;10147;16.402;102.848;2023-07-22T10:36:07;33.70;99.90
19972;DHT22;10147;16.402;102.848;2023-07-22T10:38:38;33.60;99.90
19972;DHT22;10147;16.402;102.848;2023-07-22T10:41:15;33.50;99.90
19972;DHT22;10147;16.402;102.848;2023-07-22T10:43:58;33.50;99.90
19972;DHT22;10147;16.402;102.848;2023-07-22T10:46:37;33.50;99.90
19972;DHT22;10147;16.402;102.848;2023-07-22T10:49:14;33.40;99.90
19972;DHT22;10147;16.402;102.848;2023-07-22T10:51:49;33.40;99.90
19972;DHT22;10147;16.402;102.848;2023-07-22T10:54:33;33.30;99.90
19972;DHT22;10147;16.402;102.848;2023-07-22T10:57:24;33.30;99.90
19972;DHT22;10147;16.402;102.848;2023-07-22T10:59:55;33.30;99.90
19972;DHT22;10147;16.402;102.848;2023-07-22T11:02:28;33.20;99.90
19972;DHT22;10147;16.402;102.848;2023-07-22T11:04:59;33.10;99.90
19972;DHT22;10147;16.402;102.848;2023-07-22T11:07:34;33.10;99.90
19972;DHT22;10147;16.402;102.848;2023-07-22T11:10:18;33.00;99.90
19972;DHT22;10147;16.402;102.848;2023-07-22T11:12:48;32.90;99.90
19972;DHT22;10147;16.402;102.848;2023-07-22T11:15:18;32.90;99.90
19972;DHT22;10147;16.402;102.848;2023-07-22T11:17:48;32.90;99.90
19972;DHT22;10147;16.402;102.848;2023-07-22T11:20:18;32.80;99.90
19972;DHT22;10147;16.402;102.848;2023-07-22T11:22:51;32.80;99.90
19972;DHT22;10147;16.402;102.848;2023-07-22T11:25:21;32.80;99.90
19972;DHT22;10147;16.402;102.848;2023-07-22T11:27:51;32.90;99.90
19972;DHT22;10147;16.402;102.848;2023-07-22T11:30:24;32.80;99.90
19972;DHT22;10147;16.402;102.848;2023-07-22T11:32:58;32.70;99.90
19972;DHT22;10147;16.402;102.848;2023-07-22T11:35:28;32.80;99.90
19972;DHT22;10147;16.402;102.848;2023-07-22T11:38:03;32.70;99.90
19972;DHT22;10147;16.402;102.848;2023-07-22T11:40:34;32.50;99.90
19972;DHT22;10147;16.402;102.848;2023-07-22T11:43:05;32.60;99.90
19972;DHT22;10147;16.402;102.848;2023-07-22T11:45:38;32.50;99.90
19972;DHT22;10147;16.402;102.848;2023-07-22T11:48:13;32.60;99.90
19972;DHT22;10147;16.402;102.848;2023-07-22T11:50:43;32.70;99.90
19972;DHT22;10147;16.402;102.848;2023-07-22T11:53:13;32.70;99.90
19972;DHT22;10147;16.402;102.848;2023-07-22T11:55:44;32.60;99.90
19972;DHT22;10147;16.402;102.848;2023-07-22T11:58:14;32.60;99.90
19972;DHT22;10147;16.402;102.848;2023-07-22T12:01:06;32.50;99.90
19972;DHT22;10147;16.402;102.848;2023-07-22T12:03:37;32.40;99.90
19972;DHT22;10147;16.402;102.848;2023-07-22T12:06:09;32.40;99.90
19972;DHT22;10147;16.402;102.848;2023-07-22T12:08:48;32.30;99.90
19972;DHT22;10147;16.402;102.848;2023-07-22T12:11:23;31.80;99.90
19972;DHT22;10147;16.402;102.848;2023-07-22T12:14:13;31.90;99.90
19972;DHT22;10147;16.402;102.848;2023-07-22T12:16:43;32.00;99.90
19972;DHT22;10147;16.402;102.848;2023-07-22T12:19:13;32.10;99.90
19972;DHT22;10147;16.402;102.848;2023-07-22T12:21:43;32.20;99.90
19972;DHT22;10147;16.402;102.848;2023-07-22T12:24:14;32.00;99.90
19972;DHT22;10147;16.402;102.848;2023-07-22T12:26:45;32.10;99.90
19972;DHT22;10147;16.402;102.848;2023-07-22T12:29:15;32.10;99.90
19972;DHT22;10147;16.402;102.848;2023-07-22T12:31:45;32.00;99.90
19972;DHT22;10147;16.402;102.848;2023-07-22T12:34:15;32.00;99.90
19972;DHT22;10147;16.402;102.848;2023-07-22T12:36:46;32.10;99.90
19972;DHT22;10147;16.402;102.848;2023-07-22T12:39:16;32.00;99.90
19972;DHT22;10147;16.402;102.848;2023-07-22T12:41:47;32.00;99.90
19972;DHT22;10147;16.402;102.848;2023-07-22T12:44:17;31.90;99.90
19972;DHT22;10147;16.402;102.848;2023-07-22T12:46:47;31.90;99.90
19972;DHT22;10147;16.402;102.848;2023-07-22T12:49:17;31.60;99.90
19972;DHT22;10147;16.402;102.848;2023-07-22T12:51:48;31.70;99.90
19972;DHT22;10147;16.402;102.848;2023-07-22T12:54:18;31.70;99.90
19972;DHT22;10147;16.402;102.848;2023-07-22T12:56:48;31.70;99.90
19972;DHT22;10147;16.402;102.848;2023-07-22T12:59:18;31.60;99.90
19972;DHT22;10147;16.402;102.848;2023-07-22T13:01:49;31.50;99.90
19972;DHT22;10147;16.402;102.848;2023-07-22T13:04:19;31.20;99.90
19972;DHT22;10147;16.402;102.848;2023-07-22T13:06:50;31.20;99.90
19972;DHT22;10147;16.402;102.848;2023-07-22T13:09:21;31.30;99.90
19972;DHT22;10147;16.402;102.848;2023-07-22T13:11:51;31.40;99.90
19972;DHT22;10147;16.402;102.848;2023-07-22T13:14:21;31.50;99.90
19972;DHT22;10147;16.402;102.848;2023-07-22T13:16:51;31.50;99.90
19972;DHT22;10147;16.402;102.848;2023-07-22T13:19:21;31.60;99.90
19972;DHT22;10147;16.402;102.848;2023-07-22T13:21:51;31.30;99.90
19972;DHT22;10147;16.402;102.848;2023-07-22T13:24:22;31.20;99.90
19972;DHT22;10147;16.402;102.848;2023-07-22T13:26:52;31.20;99.90
19972;DHT22;10147;16.402;102.848;2023-07-22T13:29:22;31.10;99.90
19972;DHT22;10147;16.402;102.848;2023-07-22T13:31:53;31.00;99.90
19972;DHT22;10147;16.402;102.848;2023-07-22T13:34:23;31.10;99.90
19972;DHT22;10147;16.402;102.848;2023-07-22T13:36:56;31.30;99.90
19972;DHT22;10147;16.402;102.848;2023-07-22T13:39:27;31.20;99.90
19972;DHT22;10147;16.402;102.848;2023-07-22T13:41:59;31.30;99.90
19972;DHT22;10147;16.402;102.848;2023-07-22T13:44:29;31.30;99.90
19972;DHT22;10147;16.402;102.848;2023-07-22T13:47:00;31.40;99.90
19972;DHT22;10147;16.402;102.848;2023-07-22T13:49:31;31.20;99.90
19972;DHT22;10147;16.402;102.848;2023-07-22T13:52:05;31.10;99.90
19972;DHT22;10147;16.402;102.848;2023-07-22T13:54:36;31.10;99.90
19972;DHT22;10147;16.402;102.848;2023-07-22T13:57:06;31.10;99.90
19972;DHT22;10147;16.402;102.848;2023-07-22T13:59:37;31.10;99.90
19972;DHT22;10147;16.402;102.848;2023-07-22T14:02:07;31.10;99.90
19972;DHT22;10147;16.402;102.848;2023-07-22T14:04:37;31.10;99.90
19972;DHT22;10147;16.402;102.848;2023-07-22T14:07:08;31.10;99.90
19972;DHT22;10147;16.402;102.848;2023-07-22T14:09:38;31.00;99.90
19972;DHT22;10147;16.402;102.848;2023-07-22T14:12:08;30.90;99.90
19972;DHT22;10147;16.402;102.848;2023-07-22T14:14:39;30.90;99.90
19972;DHT22;10147;16.402;102.848;2023-07-22T14:17:09;30.90;99.90
19972;DHT22;10147;16.402;102.848;2023-07-22T14:19:39;30.90;99.90
19972;DHT22;10147;16.402;102.848;2023-07-22T14:22:10;30.80;99.90
19972;DHT22;10147;16.402;102.848;2023-07-22T14:24:40;30.90;99.90
19972;DHT22;10147;16.402;102.848;2023-07-22T14:27:10;30.90;99.90
19972;DHT22;10147;16.402;102.848;2023-07-22T14:29:41;30.90;99.90
19972;DHT22;10147;16.402;102.848;2023-07-22T14:32:11;30.90;99.90
19972;DHT22;10147;16.402;102.848;2023-07-22T14:34:42;30.90;99.90
19972;DHT22;10147;16.402;102.848;2023-07-22T14:37:13;30.90;99.90
19972;DHT22;10147;16.402;102.848;2023-07-22T14:39:44;31.00;99.90
19972;DHT22;10147;16.402;102.848;2023-07-22T14:42:15;30.80;99.90
19972;DHT22;10147;16.402;102.848;2023-07-22T14:44:45;30.80;99.90
19972;DHT22;10147;16.402;102.848;2023-07-22T14:47:15;30.80;99.90
19972;DHT22;10147;16.402;102.848;2023-07-22T14:49:46;30.80;99.90
19972;DHT22;10147;16.402;102.848;2023-07-22T14:52:20;30.80;99.90
19972;DHT22;10147;16.402;102.848;2023-07-22T14:54:50;30.80;99.90
19972;DHT22;10147;16.402;102.848;2023-07-22T14:57:20;30.80;99.90
19972;DHT22;10147;16.402;102.848;2023-07-22T14:59:50;30.70;99.90
19972;DHT22;10147;16.402;102.848;2023-07-22T15:02:21;30.60;99.90
19972;DHT22;10147;16.402;102.848;2023-07-22T15:04:51;30.60;99.90
19972;DHT22;10147;16.402;102.848;2023-07-22T15:07:22;30.60;99.90
19972;DHT22;10147;16.402;102.848;2023-07-22T15:09:53;30.50;99.90
19972;DHT22;10147;16.402;102.848;2023-07-22T15:12:23;30.50;99.90
19972;DHT22;10147;16.402;102.848;2023-07-22T15:14:54;30.40;99.90
19972;DHT22;10147;16.402;102.848;2023-07-22T15:17:24;30.20;99.90
19972;DHT22;10147;16.402;102.848;2023-07-22T15:19:56;29.90;99.90
19972;DHT22;10147;16.402;102.848;2023-07-22T15:22:25;29.80;99.90
19972;DHT22;10147;16.402;102.848;2023-07-22T15:24:55;29.80;99.90
19972;DHT22;10147;16.402;102.848;2023-07-22T15:27:26;29.50;99.90
19972;DHT22;10147;16.402;102.848;2023-07-22T15:29:56;29.60;99.90